sensor_id;sensor_type;location;lat;lon;timestamp;P1;durP1;ratioP1;P2;durP2;ratioP2
22937;SDS011;11634;42.734;23.298;2022-08-19T00:00:36;5.18;;;4.50;;
22937;SDS011;11634;42.734;23.298;2022-08-19T00:03:02;5.60;;;4.85;;
22937;SDS011;11634;42.734;23.298;2022-08-19T00:05:29;6.10;;;5.28;;
22937;SDS011;11634;42.734;23.298;2022-08-19T00:07:56;4.63;;;4.22;;
22937;SDS011;11634;42.734;23.298;2022-08-19T00:10:22;5.68;;;4.85;;
22937;SDS011;11634;42.734;23.298;2022-08-19T00:12:49;7.25;;;5.07;;
22937;SDS011;11634;42.734;23.298;2022-08-19T00:15:16;6.47;;;4.63;;
22937;SDS011;11634;42.734;23.298;2022-08-19T00:17:46;7.40;;;4.70;;
22937;SDS011;11634;42.734;23.298;2022-08-19T00:20:13;5.35;;;4.85;;
22937;SDS011;11634;42.734;23.298;2022-08-19T00:22:43;5.55;;;4.88;;
22937;SDS011;11634;42.734;23.298;2022-08-19T00:25:09;5.55;;;4.93;;
22937;SDS011;11634;42.734;23.298;2022-08-19T00:27:36;7.20;;;5.20;;
22937;SDS011;11634;42.734;23.298;2022-08-19T00:30:03;6.07;;;5.10;;
22937;SDS011;11634;42.734;23.298;2022-08-19T00:32:30;5.25;;;4.85;;
22937;SDS011;11634;42.734;23.298;2022-08-19T00:34:55;6.85;;;5.30;;
22937;SDS011;11634;42.734;23.298;2022-08-19T00:37:22;5.45;;;4.72;;
22937;SDS011;11634;42.734;23.298;2022-08-19T00:39:51;5.88;;;5.20;;
22937;SDS011;11634;42.734;23.298;2022-08-19T00:42:17;7.85;;;5.30;;
22937;SDS011;11634;42.734;23.298;2022-08-19T00:44:43;6.18;;;5.60;;
22937;SDS011;11634;42.734;23.298;2022-08-19T00:47:09;7.22;;;5.57;;
22937;SDS011;11634;42.734;23.298;2022-08-19T00:49:43;6.40;;;5.80;;
22937;SDS011;11634;42.734;23.298;2022-08-19T00:52:20;6.35;;;5.60;;
22937;SDS011;11634;42.734;23.298;2022-08-19T00:54:50;7.82;;;5.80;;
22937;SDS011;11634;42.734;23.298;2022-08-19T00:57:18;7.25;;;6.65;;
22937;SDS011;11634;42.734;23.298;2022-08-19T00:59:50;6.97;;;6.28;;
22937;SDS011;11634;42.734;23.298;2022-08-19T01:02:21;8.23;;;7.30;;
22937;SDS011;11634;42.734;23.298;2022-08-19T01:04:46;8.00;;;7.20;;
22937;SDS011;11634;42.734;23.298;2022-08-19T01:07:12;8.02;;;7.18;;
22937;SDS011;11634;42.734;23.298;2022-08-19T01:09:38;8.10;;;7.40;;
22937;SDS011;11634;42.734;23.298;2022-08-19T01:12:04;8.27;;;7.47;;
22937;SDS011;11634;42.734;23.298;2022-08-19T01:14:30;8.63;;;7.82;;
22937;SDS011;11634;42.734;23.298;2022-08-19T01:16:56;8.40;;;7.60;;
22937;SDS011;11634;42.734;23.298;2022-08-19T01:19:33;8.23;;;7.43;;
22937;SDS011;11634;42.734;23.298;2022-08-19T01:22:06;9.45;;;6.70;;
22937;SDS011;11634;42.734;23.298;2022-08-19T01:24:37;9.57;;;7.43;;
22937;SDS011;11634;42.734;23.298;2022-08-19T01:27:06;7.60;;;6.80;;
22937;SDS011;11634;42.734;23.298;2022-08-19T01:29:33;11.45;;;7.57;;
22937;SDS011;11634;42.734;23.298;2022-08-19T01:31:59;9.35;;;7.78;;
22937;SDS011;11634;42.734;23.298;2022-08-19T01:34:26;8.07;;;7.28;;
22937;SDS011;11634;42.734;23.298;2022-08-19T01:36:52;9.57;;;8.57;;
22937;SDS011;11634;42.734;23.298;2022-08-19T01:39:22;8.90;;;8.00;;
22937;SDS011;11634;42.734;23.298;2022-08-19T01:41:49;10.45;;;7.88;;
22937;SDS011;11634;42.734;23.298;2022-08-19T01:44:15;9.18;;;8.02;;
22937;SDS011;11634;42.734;23.298;2022-08-19T01:46:46;8.43;;;7.72;;
22937;SDS011;11634;42.734;23.298;2022-08-19T01:49:12;8.27;;;7.35;;
22937;SDS011;11634;42.734;23.298;2022-08-19T01:51:38;7.93;;;7.22;;
22937;SDS011;11634;42.734;23.298;2022-08-19T01:54:04;8.85;;;7.95;;
22937;SDS011;11634;42.734;23.298;2022-08-19T01:56:30;8.23;;;7.45;;
22937;SDS011;11634;42.734;23.298;2022-08-19T01:58:57;8.63;;;7.82;;
22937;SDS011;11634;42.734;23.298;2022-08-19T02:01:33;10.82;;;8.20;;
22937;SDS011;11634;42.734;23.298;2022-08-19T02:03:59;8.55;;;7.65;;
22937;SDS011;11634;42.734;23.298;2022-08-19T02:06:26;8.63;;;7.82;;
22937;SDS011;11634;42.734;23.298;2022-08-19T02:08:52;8.50;;;7.60;;
22937;SDS011;11634;42.734;23.298;2022-08-19T02:11:19;9.02;;;8.13;;
22937;SDS011;11634;42.734;23.298;2022-08-19T02:13:47;8.27;;;7.55;;
22937;SDS011;11634;42.734;23.298;2022-08-19T02:16:14;8.88;;;8.02;;
22937;SDS011;11634;42.734;23.298;2022-08-19T02:18:41;9.85;;;8.07;;
22937;SDS011;11634;42.734;23.298;2022-08-19T02:21:06;8.40;;;7.65;;
22937;SDS011;11634;42.734;23.298;2022-08-19T02:23:32;9.30;;;7.95;;
22937;SDS011;11634;42.734;23.298;2022-08-19T02:25:58;8.88;;;7.97;;
22937;SDS011;11634;42.734;23.298;2022-08-19T02:28:23;7.60;;;6.90;;
22937;SDS011;11634;42.734;23.298;2022-08-19T02:30:49;8.85;;;8.07;;
22937;SDS011;11634;42.734;23.298;2022-08-19T02:33:14;8.50;;;7.80;;
22937;SDS011;11634;42.734;23.298;2022-08-19T02:35:41;11.00;;;7.93;;
22937;SDS011;11634;42.734;23.298;2022-08-19T02:38:08;8.02;;;7.32;;
22937;SDS011;11634;42.734;23.298;2022-08-19T02:40:54;8.23;;;7.53;;
22937;SDS011;11634;42.734;23.298;2022-08-19T02:43:22;8.82;;;8.00;;
22937;SDS011;11634;42.734;23.298;2022-08-19T02:45:49;10.32;;;8.07;;
22937;SDS011;11634;42.734;23.298;2022-08-19T02:48:16;8.52;;;7.72;;
22937;SDS011;11634;42.734;23.298;2022-08-19T02:50:44;8.43;;;7.68;;
22937;SDS011;11634;42.734;23.298;2022-08-19T02:53:10;9.68;;;7.07;;
22937;SDS011;11634;42.734;23.298;2022-08-19T02:55:41;9.38;;;7.70;;
22937;SDS011;11634;42.734;23.298;2022-08-19T02:58:08;8.40;;;7.63;;
22937;SDS011;11634;42.734;23.298;2022-08-19T03:00:34;8.88;;;8.05;;
22937;SDS011;11634;42.734;23.298;2022-08-19T03:02:59;8.30;;;7.50;;
22937;SDS011;11634;42.734;23.298;2022-08-19T03:05:25;9.82;;;8.20;;
22937;SDS011;11634;42.734;23.298;2022-08-19T03:07:52;8.20;;;7.40;;
22937;SDS011;11634;42.734;23.298;2022-08-19T03:10:17;8.60;;;7.88;;
22937;SDS011;11634;42.734;23.298;2022-08-19T03:12:43;9.68;;;8.30;;
22937;SDS011;11634;42.734;23.298;2022-08-19T03:15:10;10.75;;;8.15;;
22937;SDS011;11634;42.734;23.298;2022-08-19T03:17:36;9.02;;;8.10;;
22937;SDS011;11634;42.734;23.298;2022-08-19T03:20:01;8.48;;;7.78;;
22937;SDS011;11634;42.734;23.298;2022-08-19T03:22:28;9.45;;;8.25;;
22937;SDS011;11634;42.734;23.298;2022-08-19T03:24:56;9.43;;;8.68;;
22937;SDS011;11634;42.734;23.298;2022-08-19T03:27:22;9.50;;;8.55;;
22937;SDS011;11634;42.734;23.298;2022-08-19T03:29:47;8.45;;;7.75;;
22937;SDS011;11634;42.734;23.298;2022-08-19T03:32:13;8.48;;;7.70;;
22937;SDS011;11634;42.734;23.298;2022-08-19T03:34:38;8.95;;;7.90;;
22937;SDS011;11634;42.734;23.298;2022-08-19T03:37:08;8.73;;;7.63;;
22937;SDS011;11634;42.734;23.298;2022-08-19T03:39:39;8.38;;;7.57;;
22937;SDS011;11634;42.734;23.298;2022-08-19T03:42:07;9.30;;;8.30;;
22937;SDS011;11634;42.734;23.298;2022-08-19T03:44:33;8.48;;;7.60;;
22937;SDS011;11634;42.734;23.298;2022-08-19T03:46:59;9.77;;;7.93;;
22937;SDS011;11634;42.734;23.298;2022-08-19T03:49:26;8.82;;;8.02;;
22937;SDS011;11634;42.734;23.298;2022-08-19T03:51:53;8.35;;;7.60;;
22937;SDS011;11634;42.734;23.298;2022-08-19T03:54:22;8.80;;;8.10;;
22937;SDS011;11634;42.734;23.298;2022-08-19T03:56:50;8.93;;;8.15;;
22937;SDS011;11634;42.734;23.298;2022-08-19T03:59:25;10.30;;;7.43;;
22937;SDS011;11634;42.734;23.298;2022-08-19T04:01:53;8.75;;;7.68;;
22937;SDS011;11634;42.734;23.298;2022-08-19T04:04:20;8.68;;;7.90;;
22937;SDS011;11634;42.734;23.298;2022-08-19T04:06:46;8.57;;;7.78;;
22937;SDS011;11634;42.734;23.298;2022-08-19T04:09:12;9.90;;;8.40;;
22937;SDS011;11634;42.734;23.298;2022-08-19T04:11:44;7.93;;;7.22;;
22937;SDS011;11634;42.734;23.298;2022-08-19T04:14:13;7.80;;;7.10;;
22937;SDS011;11634;42.734;23.298;2022-08-19T04:16:42;8.73;;;7.95;;
22937;SDS011;11634;42.734;23.298;2022-08-19T04:19:09;8.57;;;7.78;;
22937;SDS011;11634;42.734;23.298;2022-08-19T04:21:36;8.93;;;8.07;;
22937;SDS011;11634;42.734;23.298;2022-08-19T04:24:02;8.32;;;7.60;;
22937;SDS011;11634;42.734;23.298;2022-08-19T04:26:30;9.40;;;8.48;;
22937;SDS011;11634;42.734;23.298;2022-08-19T04:28:58;8.88;;;7.97;;
22937;SDS011;11634;42.734;23.298;2022-08-19T04:31:27;8.48;;;7.55;;
22937;SDS011;11634;42.734;23.298;2022-08-19T04:33:55;9.27;;;8.07;;
22937;SDS011;11634;42.734;23.298;2022-08-19T04:36:27;11.98;;;8.10;;
22937;SDS011;11634;42.734;23.298;2022-08-19T04:38:59;8.50;;;7.53;;
22937;SDS011;11634;42.734;23.298;2022-08-19T04:41:28;8.32;;;7.53;;
22937;SDS011;11634;42.734;23.298;2022-08-19T04:44:13;10.35;;;8.30;;
22937;SDS011;11634;42.734;23.298;2022-08-19T04:46:39;9.18;;;8.38;;
22937;SDS011;11634;42.734;23.298;2022-08-19T04:49:05;9.30;;;8.50;;
22937;SDS011;11634;42.734;23.298;2022-08-19T04:51:32;9.98;;;8.57;;
22937;SDS011;11634;42.734;23.298;2022-08-19T04:53:58;9.43;;;8.52;;
22937;SDS011;11634;42.734;23.298;2022-08-19T04:56:26;10.25;;;9.05;;
22937;SDS011;11634;42.734;23.298;2022-08-19T04:58:52;9.63;;;8.52;;
22937;SDS011;11634;42.734;23.298;2022-08-19T05:01:21;9.95;;;9.00;;
22937;SDS011;11634;42.734;23.298;2022-08-19T05:03:49;11.70;;;9.30;;
22937;SDS011;11634;42.734;23.298;2022-08-19T05:06:17;10.77;;;9.65;;
22937;SDS011;11634;42.734;23.298;2022-08-19T05:08:45;10.75;;;9.60;;
22937;SDS011;11634;42.734;23.298;2022-08-19T05:11:25;12.40;;;10.48;;
22937;SDS011;11634;42.734;23.298;2022-08-19T05:13:53;11.27;;;10.05;;
22937;SDS011;11634;42.734;23.298;2022-08-19T05:16:20;13.43;;;11.02;;
22937;SDS011;11634;42.734;23.298;2022-08-19T05:18:47;10.98;;;10.05;;
22937;SDS011;11634;42.734;23.298;2022-08-19T05:21:32;13.43;;;10.48;;
22937;SDS011;11634;42.734;23.298;2022-08-19T05:24:16;10.80;;;9.80;;
22937;SDS011;11634;42.734;23.298;2022-08-19T05:26:46;11.00;;;9.95;;
22937;SDS011;11634;42.734;23.298;2022-08-19T05:29:13;13.10;;;10.77;;
22937;SDS011;11634;42.734;23.298;2022-08-19T05:31:40;11.52;;;10.52;;
22937;SDS011;11634;42.734;23.298;2022-08-19T05:34:06;11.75;;;10.57;;
22937;SDS011;11634;42.734;23.298;2022-08-19T05:36:39;11.90;;;10.48;;
22937;SDS011;11634;42.734;23.298;2022-08-19T05:39:07;11.80;;;9.80;;
22937;SDS011;11634;42.734;23.298;2022-08-19T05:41:33;14.02;;;9.98;;
22937;SDS011;11634;42.734;23.298;2022-08-19T05:44:03;11.02;;;9.85;;
22937;SDS011;11634;42.734;23.298;2022-08-19T05:46:34;11.60;;;10.50;;
22937;SDS011;11634;42.734;23.298;2022-08-19T05:49:03;12.55;;;9.88;;
22937;SDS011;11634;42.734;23.298;2022-08-19T05:51:31;13.30;;;9.35;;
22937;SDS011;11634;42.734;23.298;2022-08-19T05:53:57;11.13;;;10.00;;
22937;SDS011;11634;42.734;23.298;2022-08-19T05:56:23;13.55;;;10.25;;
22937;SDS011;11634;42.734;23.298;2022-08-19T05:58:51;12.80;;;10.05;;
22937;SDS011;11634;42.734;23.298;2022-08-19T06:01:19;12.10;;;9.73;;
22937;SDS011;11634;42.734;23.298;2022-08-19T06:03:45;9.98;;;9.00;;
22937;SDS011;11634;42.734;23.298;2022-08-19T06:06:13;11.77;;;8.60;;
22937;SDS011;11634;42.734;23.298;2022-08-19T06:08:41;10.73;;;8.23;;
22937;SDS011;11634;42.734;23.298;2022-08-19T06:11:15;9.45;;;8.38;;
22937;SDS011;11634;42.734;23.298;2022-08-19T06:13:41;10.43;;;8.82;;
22937;SDS011;11634;42.734;23.298;2022-08-19T06:16:08;12.77;;;8.05;;
22937;SDS011;11634;42.734;23.298;2022-08-19T06:18:33;9.70;;;7.60;;
22937;SDS011;11634;42.734;23.298;2022-08-19T06:21:00;10.32;;;7.03;;
22937;SDS011;11634;42.734;23.298;2022-08-19T06:23:29;9.90;;;7.63;;
22937;SDS011;11634;42.734;23.298;2022-08-19T06:25:56;9.07;;;7.03;;
22937;SDS011;11634;42.734;23.298;2022-08-19T06:28:21;9.25;;;7.43;;
22937;SDS011;11634;42.734;23.298;2022-08-19T06:30:48;7.88;;;6.30;;
22937;SDS011;11634;42.734;23.298;2022-08-19T06:33:15;10.13;;;6.13;;
22937;SDS011;11634;42.734;23.298;2022-08-19T06:35:40;7.80;;;6.40;;
22937;SDS011;11634;42.734;23.298;2022-08-19T06:38:07;6.97;;;6.35;;
22937;SDS011;11634;42.734;23.298;2022-08-19T06:40:34;7.78;;;6.95;;
22937;SDS011;11634;42.734;23.298;2022-08-19T06:43:00;8.38;;;6.50;;
22937;SDS011;11634;42.734;23.298;2022-08-19T06:45:27;11.73;;;6.75;;
22937;SDS011;11634;42.734;23.298;2022-08-19T06:47:53;8.85;;;6.00;;
22937;SDS011;11634;42.734;23.298;2022-08-19T06:50:22;7.32;;;6.50;;
22937;SDS011;11634;42.734;23.298;2022-08-19T06:52:48;8.20;;;6.90;;
22937;SDS011;11634;42.734;23.298;2022-08-19T06:55:14;10.93;;;6.57;;
22937;SDS011;11634;42.734;23.298;2022-08-19T06:57:41;8.13;;;7.05;;
22937;SDS011;11634;42.734;23.298;2022-08-19T07:00:07;9.32;;;6.60;;
22937;SDS011;11634;42.734;23.298;2022-08-19T07:02:42;8.10;;;7.30;;
22937;SDS011;11634;42.734;23.298;2022-08-19T07:05:09;8.73;;;7.18;;
22937;SDS011;11634;42.734;23.298;2022-08-19T07:07:35;9.65;;;8.02;;
22937;SDS011;11634;42.734;23.298;2022-08-19T07:10:00;12.13;;;8.90;;
22937;SDS011;11634;42.734;23.298;2022-08-19T07:12:28;8.63;;;7.55;;
22937;SDS011;11634;42.734;23.298;2022-08-19T07:14:58;10.38;;;7.80;;
22937;SDS011;11634;42.734;23.298;2022-08-19T07:17:23;12.40;;;8.65;;
22937;SDS011;11634;42.734;23.298;2022-08-19T07:19:49;10.35;;;9.38;;
22937;SDS011;11634;42.734;23.298;2022-08-19T07:22:15;10.63;;;8.52;;
22937;SDS011;11634;42.734;23.298;2022-08-19T07:24:41;11.95;;;7.75;;
22937;SDS011;11634;42.734;23.298;2022-08-19T07:27:06;12.98;;;8.27;;
22937;SDS011;11634;42.734;23.298;2022-08-19T07:29:33;12.15;;;7.57;;
22937;SDS011;11634;42.734;23.298;2022-08-19T07:32:00;11.90;;;9.70;;
22937;SDS011;11634;42.734;23.298;2022-08-19T07:34:27;8.90;;;7.30;;
22937;SDS011;11634;42.734;23.298;2022-08-19T07:36:54;11.05;;;7.18;;
22937;SDS011;11634;42.734;23.298;2022-08-19T07:39:24;14.52;;;7.10;;
22937;SDS011;11634;42.734;23.298;2022-08-19T07:41:52;8.45;;;6.75;;
22937;SDS011;11634;42.734;23.298;2022-08-19T07:44:18;9.15;;;6.90;;
22937;SDS011;11634;42.734;23.298;2022-08-19T07:46:48;7.78;;;6.72;;
22937;SDS011;11634;42.734;23.298;2022-08-19T07:49:16;8.48;;;6.80;;
22937;SDS011;11634;42.734;23.298;2022-08-19T07:51:45;11.68;;;6.88;;
22937;SDS011;11634;42.734;23.298;2022-08-19T07:54:13;11.02;;;6.75;;
22937;SDS011;11634;42.734;23.298;2022-08-19T07:56:39;10.43;;;6.43;;
22937;SDS011;11634;42.734;23.298;2022-08-19T07:59:04;11.68;;;6.78;;
22937;SDS011;11634;42.734;23.298;2022-08-19T08:01:30;7.88;;;7.03;;
22937;SDS011;11634;42.734;23.298;2022-08-19T08:03:56;10.10;;;6.25;;
22937;SDS011;11634;42.734;23.298;2022-08-19T08:06:42;12.02;;;7.32;;
22937;SDS011;11634;42.734;23.298;2022-08-19T08:09:32;12.18;;;6.30;;
22937;SDS011;11634;42.734;23.298;2022-08-19T08:12:26;11.82;;;6.32;;
22937;SDS011;11634;42.734;23.298;2022-08-19T08:14:59;9.20;;;6.50;;
22937;SDS011;11634;42.734;23.298;2022-08-19T08:17:30;9.70;;;6.57;;
22937;SDS011;11634;42.734;23.298;2022-08-19T08:19:57;7.53;;;6.22;;
22937;SDS011;11634;42.734;23.298;2022-08-19T08:22:23;10.18;;;5.90;;
22937;SDS011;11634;42.734;23.298;2022-08-19T08:25:15;14.10;;;6.60;;
22937;SDS011;11634;42.734;23.298;2022-08-19T08:27:43;15.57;;;6.95;;
22937;SDS011;11634;42.734;23.298;2022-08-19T08:30:11;8.20;;;6.25;;
22937;SDS011;11634;42.734;23.298;2022-08-19T08:32:40;9.52;;;5.85;;
22937;SDS011;11634;42.734;23.298;2022-08-19T08:35:07;11.02;;;5.93;;
22937;SDS011;11634;42.734;23.298;2022-08-19T08:37:34;10.10;;;8.45;;
22937;SDS011;11634;42.734;23.298;2022-08-19T08:40:09;9.23;;;6.43;;
22937;SDS011;11634;42.734;23.298;2022-08-19T08:43:03;9.57;;;5.97;;
22937;SDS011;11634;42.734;23.298;2022-08-19T08:45:42;6.78;;;5.50;;
22937;SDS011;11634;42.734;23.298;2022-08-19T08:48:24;7.80;;;5.70;;
22937;SDS011;11634;42.734;23.298;2022-08-19T08:51:04;6.95;;;5.57;;
22937;SDS011;11634;42.734;23.298;2022-08-19T08:53:34;13.55;;;6.53;;
22937;SDS011;11634;42.734;23.298;2022-08-19T08:56:00;10.07;;;5.57;;
22937;SDS011;11634;42.734;23.298;2022-08-19T08:58:30;7.22;;;5.25;;
22937;SDS011;11634;42.734;23.298;2022-08-19T09:01:08;7.32;;;5.30;;
22937;SDS011;11634;42.734;23.298;2022-08-19T09:03:36;6.25;;;5.05;;
22937;SDS011;11634;42.734;23.298;2022-08-19T09:16:48;4.97;;;4.40;;
22937;SDS011;11634;42.734;23.298;2022-08-19T09:19:14;6.53;;;4.22;;
22937;SDS011;11634;42.734;23.298;2022-08-19T09:21:42;3.97;;;3.50;;
22937;SDS011;11634;42.734;23.298;2022-08-19T09:24:08;5.10;;;3.55;;
22937;SDS011;11634;42.734;23.298;2022-08-19T09:26:34;4.65;;;3.83;;
22937;SDS011;11634;42.734;23.298;2022-08-19T09:29:02;6.65;;;3.60;;
22937;SDS011;11634;42.734;23.298;2022-08-19T09:31:30;3.88;;;3.40;;
22937;SDS011;11634;42.734;23.298;2022-08-19T09:33:58;4.80;;;4.30;;
22937;SDS011;11634;42.734;23.298;2022-08-19T09:36:25;3.92;;;3.53;;
22937;SDS011;11634;42.734;23.298;2022-08-19T09:38:54;3.63;;;3.33;;
22937;SDS011;11634;42.734;23.298;2022-08-19T09:41:22;4.63;;;2.97;;
22937;SDS011;11634;42.734;23.298;2022-08-19T09:43:50;5.47;;;3.70;;
22937;SDS011;11634;42.734;23.298;2022-08-19T09:46:17;6.07;;;5.55;;
22937;SDS011;11634;42.734;23.298;2022-08-19T09:48:46;4.88;;;4.05;;
22937;SDS011;11634;42.734;23.298;2022-08-19T09:51:15;5.55;;;3.78;;
22937;SDS011;11634;42.734;23.298;2022-08-19T09:53:43;4.70;;;3.88;;
22937;SDS011;11634;42.734;23.298;2022-08-19T09:56:12;5.43;;;3.60;;
22937;SDS011;11634;42.734;23.298;2022-08-19T09:58:38;3.72;;;3.42;;
22937;SDS011;11634;42.734;23.298;2022-08-19T10:01:05;4.05;;;3.40;;
22937;SDS011;11634;42.734;23.298;2022-08-19T10:03:33;5.45;;;3.65;;
22937;SDS011;11634;42.734;23.298;2022-08-19T10:06:00;6.95;;;3.55;;
22937;SDS011;11634;42.734;23.298;2022-08-19T10:08:29;4.72;;;3.80;;
22937;SDS011;11634;42.734;23.298;2022-08-19T10:10:58;6.53;;;3.88;;
22937;SDS011;11634;42.734;23.298;2022-08-19T10:13:26;4.95;;;3.60;;
22937;SDS011;11634;42.734;23.298;2022-08-19T10:15:54;6.10;;;3.60;;
22937;SDS011;11634;42.734;23.298;2022-08-19T10:18:22;4.63;;;3.75;;
22937;SDS011;11634;42.734;23.298;2022-08-19T10:20:50;4.60;;;3.78;;
22937;SDS011;11634;42.734;23.298;2022-08-19T10:23:18;5.15;;;3.53;;
22937;SDS011;11634;42.734;23.298;2022-08-19T10:25:44;4.43;;;3.70;;
22937;SDS011;11634;42.734;23.298;2022-08-19T10:28:11;8.07;;;3.97;;
22937;SDS011;11634;42.734;23.298;2022-08-19T10:30:39;3.85;;;3.55;;
22937;SDS011;11634;42.734;23.298;2022-08-19T10:33:07;4.95;;;3.80;;
22937;SDS011;11634;42.734;23.298;2022-08-19T10:35:32;4.25;;;3.85;;
22937;SDS011;11634;42.734;23.298;2022-08-19T10:37:58;4.50;;;3.65;;
22937;SDS011;11634;42.734;23.298;2022-08-19T10:40:27;6.05;;;4.15;;
22937;SDS011;11634;42.734;23.298;2022-08-19T10:42:54;4.75;;;3.88;;
22937;SDS011;11634;42.734;23.298;2022-08-19T10:45:20;5.05;;;4.25;;
22937;SDS011;11634;42.734;23.298;2022-08-19T10:47:52;4.82;;;4.15;;
22937;SDS011;11634;42.734;23.298;2022-08-19T10:50:18;5.68;;;4.00;;
22937;SDS011;11634;42.734;23.298;2022-08-19T10:53:03;4.40;;;4.00;;
22937;SDS011;11634;42.734;23.298;2022-08-19T10:55:31;4.55;;;4.13;;
22937;SDS011;11634;42.734;23.298;2022-08-19T10:58:16;5.45;;;4.30;;
22937;SDS011;11634;42.734;23.298;2022-08-19T11:00:51;4.38;;;4.03;;
22937;SDS011;11634;42.734;23.298;2022-08-19T11:03:25;6.03;;;4.18;;
22937;SDS011;11634;42.734;23.298;2022-08-19T11:06:03;5.05;;;3.90;;
22937;SDS011;11634;42.734;23.298;2022-08-19T11:08:33;5.30;;;3.92;;
22937;SDS011;11634;42.734;23.298;2022-08-19T11:11:03;7.35;;;4.38;;
22937;SDS011;11634;42.734;23.298;2022-08-19T11:13:30;4.47;;;3.85;;
22937;SDS011;11634;42.734;23.298;2022-08-19T11:16:01;5.07;;;3.80;;
22937;SDS011;11634;42.734;23.298;2022-08-19T11:18:29;4.35;;;3.95;;
22937;SDS011;11634;42.734;23.298;2022-08-19T11:20:55;6.93;;;4.30;;
22937;SDS011;11634;42.734;23.298;2022-08-19T11:23:30;4.10;;;3.67;;
22937;SDS011;11634;42.734;23.298;2022-08-19T11:25:56;5.55;;;4.13;;
22937;SDS011;11634;42.734;23.298;2022-08-19T11:28:22;9.13;;;4.40;;
22937;SDS011;11634;42.734;23.298;2022-08-19T11:30:48;4.47;;;4.07;;
22937;SDS011;11634;42.734;23.298;2022-08-19T11:33:17;4.15;;;3.75;;
22937;SDS011;11634;42.734;23.298;2022-08-19T11:35:42;6.90;;;4.20;;
22937;SDS011;11634;42.734;23.298;2022-08-19T11:38:08;6.15;;;4.63;;
22937;SDS011;11634;42.734;23.298;2022-08-19T11:40:33;8.30;;;4.40;;
22937;SDS011;11634;42.734;23.298;2022-08-19T11:42:59;6.18;;;4.25;;
22937;SDS011;11634;42.734;23.298;2022-08-19T11:45:25;6.60;;;3.95;;
22937;SDS011;11634;42.734;23.298;2022-08-19T11:47:52;7.50;;;4.57;;
22937;SDS011;11634;42.734;23.298;2022-08-19T11:50:18;6.15;;;4.10;;
22937;SDS011;11634;42.734;23.298;2022-08-19T11:52:45;5.30;;;4.13;;
22937;SDS011;11634;42.734;23.298;2022-08-19T11:55:11;6.28;;;4.57;;
22937;SDS011;11634;42.734;23.298;2022-08-19T11:57:38;4.15;;;3.83;;
22937;SDS011;11634;42.734;23.298;2022-08-19T12:00:06;6.53;;;3.95;;
22937;SDS011;11634;42.734;23.298;2022-08-19T12:02:33;7.18;;;4.78;;
22937;SDS011;11634;42.734;23.298;2022-08-19T12:04:58;8.32;;;4.18;;
22937;SDS011;11634;42.734;23.298;2022-08-19T12:07:27;5.32;;;4.70;;
22937;SDS011;11634;42.734;23.298;2022-08-19T12:09:52;8.40;;;4.72;;
22937;SDS011;11634;42.734;23.298;2022-08-19T12:12:18;6.28;;;3.92;;
22937;SDS011;11634;42.734;23.298;2022-08-19T12:14:43;5.00;;;3.80;;
22937;SDS011;11634;42.734;23.298;2022-08-19T12:17:10;5.88;;;4.50;;
22937;SDS011;11634;42.734;23.298;2022-08-19T12:19:36;4.72;;;4.32;;
22937;SDS011;11634;42.734;23.298;2022-08-19T12:22:02;6.13;;;3.78;;
22937;SDS011;11634;42.734;23.298;2022-08-19T12:24:31;4.82;;;4.28;;
22937;SDS011;11634;42.734;23.298;2022-08-19T12:26:57;4.35;;;3.88;;
22937;SDS011;11634;42.734;23.298;2022-08-19T12:29:24;7.70;;;4.03;;
22937;SDS011;11634;42.734;23.298;2022-08-19T12:31:54;7.80;;;4.53;;
22937;SDS011;11634;42.734;23.298;2022-08-19T12:34:27;7.57;;;3.97;;
22937;SDS011;11634;42.734;23.298;2022-08-19T12:36:55;8.55;;;4.40;;
22937;SDS011;11634;42.734;23.298;2022-08-19T12:39:22;5.68;;;4.18;;
22937;SDS011;11634;42.734;23.298;2022-08-19T12:41:48;4.75;;;4.28;;
22937;SDS011;11634;42.734;23.298;2022-08-19T12:44:14;4.78;;;3.92;;
22937;SDS011;11634;42.734;23.298;2022-08-19T12:46:40;6.07;;;3.90;;
22937;SDS011;11634;42.734;23.298;2022-08-19T12:49:06;7.07;;;4.25;;
22937;SDS011;11634;42.734;23.298;2022-08-19T12:51:31;7.55;;;3.88;;
22937;SDS011;11634;42.734;23.298;2022-08-19T12:53:57;5.13;;;4.10;;
22937;SDS011;11634;42.734;23.298;2022-08-19T12:56:22;4.78;;;4.25;;
22937;SDS011;11634;42.734;23.298;2022-08-19T12:58:48;8.55;;;4.43;;
22937;SDS011;11634;42.734;23.298;2022-08-19T13:01:15;4.93;;;4.40;;
22937;SDS011;11634;42.734;23.298;2022-08-19T13:03:41;4.78;;;4.28;;
22937;SDS011;11634;42.734;23.298;2022-08-19T13:06:08;5.97;;;4.25;;
22937;SDS011;11634;42.734;23.298;2022-08-19T13:08:34;4.45;;;4.05;;
22937;SDS011;11634;42.734;23.298;2022-08-19T13:11:10;5.32;;;4.13;;
22937;SDS011;11634;42.734;23.298;2022-08-19T13:13:38;5.40;;;3.70;;
22937;SDS011;11634;42.734;23.298;2022-08-19T13:16:06;7.43;;;3.83;;
22937;SDS011;11634;42.734;23.298;2022-08-19T13:18:35;4.63;;;4.00;;
22937;SDS011;11634;42.734;23.298;2022-08-19T13:21:04;5.55;;;3.70;;
22937;SDS011;11634;42.734;23.298;2022-08-19T13:23:31;4.35;;;3.75;;
22937;SDS011;11634;42.734;23.298;2022-08-19T13:25:58;6.55;;;3.70;;
22937;SDS011;11634;42.734;23.298;2022-08-19T13:28:25;6.38;;;4.07;;
22937;SDS011;11634;42.734;23.298;2022-08-19T13:30:51;5.57;;;3.72;;
22937;SDS011;11634;42.734;23.298;2022-08-19T13:33:35;5.20;;;4.10;;
22937;SDS011;11634;42.734;23.298;2022-08-19T13:36:01;4.75;;;3.75;;
22937;SDS011;11634;42.734;23.298;2022-08-19T13:38:27;5.03;;;3.55;;
22937;SDS011;11634;42.734;23.298;2022-08-19T13:40:53;6.88;;;4.00;;
22937;SDS011;11634;42.734;23.298;2022-08-19T13:43:22;5.63;;;3.95;;
22937;SDS011;11634;42.734;23.298;2022-08-19T13:45:52;4.93;;;3.63;;
22937;SDS011;11634;42.734;23.298;2022-08-19T13:48:21;5.70;;;4.15;;
22937;SDS011;11634;42.734;23.298;2022-08-19T13:50:47;3.90;;;3.58;;
22937;SDS011;11634;42.734;23.298;2022-08-19T13:53:13;7.35;;;3.63;;
22937;SDS011;11634;42.734;23.298;2022-08-19T13:55:40;7.18;;;3.88;;
22937;SDS011;11634;42.734;23.298;2022-08-19T13:58:07;5.82;;;4.25;;
22937;SDS011;11634;42.734;23.298;2022-08-19T14:00:35;6.45;;;3.72;;
22937;SDS011;11634;42.734;23.298;2022-08-19T14:03:02;6.35;;;4.07;;
22937;SDS011;11634;42.734;23.298;2022-08-19T14:05:29;6.18;;;3.60;;
22937;SDS011;11634;42.734;23.298;2022-08-19T14:07:56;4.38;;;3.85;;
22937;SDS011;11634;42.734;23.298;2022-08-19T14:10:23;6.07;;;3.70;;
22937;SDS011;11634;42.734;23.298;2022-08-19T14:12:49;8.10;;;4.50;;
22937;SDS011;11634;42.734;23.298;2022-08-19T14:15:17;5.50;;;4.97;;
22937;SDS011;11634;42.734;23.298;2022-08-19T14:17:43;6.43;;;4.30;;
22937;SDS011;11634;42.734;23.298;2022-08-19T14:20:12;7.07;;;4.80;;
22937;SDS011;11634;42.734;23.298;2022-08-19T14:22:40;5.65;;;4.03;;
22937;SDS011;11634;42.734;23.298;2022-08-19T14:25:08;6.78;;;4.28;;
22937;SDS011;11634;42.734;23.298;2022-08-19T14:27:36;5.20;;;4.00;;
22937;SDS011;11634;42.734;23.298;2022-08-19T14:30:04;7.82;;;4.53;;
22937;SDS011;11634;42.734;23.298;2022-08-19T14:32:35;4.68;;;4.22;;
22937;SDS011;11634;42.734;23.298;2022-08-19T14:35:01;6.53;;;4.32;;
22937;SDS011;11634;42.734;23.298;2022-08-19T14:37:27;8.10;;;4.07;;
22937;SDS011;11634;42.734;23.298;2022-08-19T14:39:52;7.53;;;4.50;;
22937;SDS011;11634;42.734;23.298;2022-08-19T14:42:18;6.15;;;4.53;;
22937;SDS011;11634;42.734;23.298;2022-08-19T14:44:44;4.95;;;4.50;;
22937;SDS011;11634;42.734;23.298;2022-08-19T14:47:10;5.38;;;4.05;;